sensor_id;sensor_type;location;lat;lon;timestamp;temperature;humidity
43043;DHT22;28667;50.758;6.096;2023-04-24T00:01:30;9.90;99.90
43043;DHT22;28667;50.758;6.096;2023-04-24T00:03:56;9.90;99.90
43043;DHT22;28667;50.758;6.096;2023-04-24T00:06:25;9.90;99.90
43043;DHT22;28667;50.758;6.096;2023-04-24T00:08:59;10.00;99.90
43043;DHT22;28667;50.758;6.096;2023-04-24T00:11:26;10.00;99.90
43043;DHT22;28667;50.758;6.096;2023-04-24T00:13:52;9.90;99.90
43043;DHT22;28667;50.758;6.096;2023-04-24T00:16:18;10.00;99.90
43043;DHT22;28667;50.758;6.096;2023-04-24T00:18:43;9.90;99.90
43043;DHT22;28667;50.758;6.096;2023-04-24T00:21:10;9.80;99.90
43043;DHT22;28667;50.758;6.096;2023-04-24T00:23:36;9.80;99.90
43043;DHT22;28667;50.758;6.096;2023-04-24T00:26:02;9.70;99.90
43043;DHT22;28667;50.758;6.096;2023-04-24T00:28:28;9.70;99.90
43043;DHT22;28667;50.758;6.096;2023-04-24T00:30:56;9.60;99.90
43043;DHT22;28667;50.758;6.096;2023-04-24T00:33:21;9.60;99.90
43043;DHT22;28667;50.758;6.096;2023-04-24T00:35:47;9.50;99.90
43043;DHT22;28667;50.758;6.096;2023-04-24T00:38:13;9.50;99.90
43043;DHT22;28667;50.758;6.096;2023-04-24T00:40:39;9.40;99.90
43043;DHT22;28667;50.758;6.096;2023-04-24T00:43:05;9.30;99.90
43043;DHT22;28667;50.758;6.096;2023-04-24T00:45:31;9.30;99.90
43043;DHT22;28667;50.758;6.096;2023-04-24T00:47:57;9.20;99.90
43043;DHT22;28667;50.758;6.096;2023-04-24T00:50:24;9.20;99.90
43043;DHT22;28667;50.758;6.096;2023-04-24T00:52:50;9.10;99.90
43043;DHT22;28667;50.758;6.096;2023-04-24T00:55:17;9.10;99.90
43043;DHT22;28667;50.758;6.096;2023-04-24T00:57:43;9.10;99.90
43043;DHT22;28667;50.758;6.096;2023-04-24T01:00:10;9.00;99.90
43043;DHT22;28667;50.758;6.096;2023-04-24T01:02:41;9.00;99.90
43043;DHT22;28667;50.758;6.096;2023-04-24T01:05:12;8.90;99.90
43043;DHT22;28667;50.758;6.096;2023-04-24T01:07:41;8.90;99.90
43043;DHT22;28667;50.758;6.096;2023-04-24T01:10:11;8.90;99.90
43043;DHT22;28667;50.758;6.096;2023-04-24T01:12:38;8.90;99.90
43043;DHT22;28667;50.758;6.096;2023-04-24T01:15:05;8.90;99.90
43043;DHT22;28667;50.758;6.096;2023-04-24T01:17:32;8.90;99.90
43043;DHT22;28667;50.758;6.096;2023-04-24T01:19:59;8.90;99.90
43043;DHT22;28667;50.758;6.096;2023-04-24T01:22:26;8.90;99.90
43043;DHT22;28667;50.758;6.096;2023-04-24T01:24:52;8.90;99.90
43043;DHT22;28667;50.758;6.096;2023-04-24T01:27:19;8.90;99.90
43043;DHT22;28667;50.758;6.096;2023-04-24T01:29:45;8.90;99.90
43043;DHT22;28667;50.758;6.096;2023-04-24T01:32:13;8.90;99.90
43043;DHT22;28667;50.758;6.096;2023-04-24T01:34:40;8.90;99.90
43043;DHT22;28667;50.758;6.096;2023-04-24T01:37:06;8.90;99.90
43043;DHT22;28667;50.758;6.096;2023-04-24T01:39:32;8.90;99.90
43043;DHT22;28667;50.758;6.096;2023-04-24T01:41:59;8.90;99.90
43043;DHT22;28667;50.758;6.096;2023-04-24T01:44:26;8.90;99.90
43043;DHT22;28667;50.758;6.096;2023-04-24T01:46:52;8.80;99.90
43043;DHT22;28667;50.758;6.096;2023-04-24T01:49:19;8.80;99.90
43043;DHT22;28667;50.758;6.096;2023-04-24T01:51:45;8.80;99.90
43043;DHT22;28667;50.758;6.096;2023-04-24T01:54:12;8.80;99.90
43043;DHT22;28667;50.758;6.096;2023-04-24T01:56:40;8.80;99.90
43043;DHT22;28667;50.758;6.096;2023-04-24T01:59:07;8.80;99.90
43043;DHT22;28667;50.758;6.096;2023-04-24T02:01:35;8.80;99.90
43043;DHT22;28667;50.758;6.096;2023-04-24T02:04:05;8.80;99.90
43043;DHT22;28667;50.758;6.096;2023-04-24T02:06:31;8.80;99.90
43043;DHT22;28667;50.758;6.096;2023-04-24T02:08:59;8.90;99.90
43043;DHT22;28667;50.758;6.096;2023-04-24T02:11:25;8.80;99.90
43043;DHT22;28667;50.758;6.096;2023-04-24T02:13:52;8.80;99.90
43043;DHT22;28667;50.758;6.096;2023-04-24T02:16:18;8.80;99.90
43043;DHT22;28667;50.758;6.096;2023-04-24T02:18:44;8.80;99.90
43043;DHT22;28667;50.758;6.096;2023-04-24T02:21:10;8.80;99.90
43043;DHT22;28667;50.758;6.096;2023-04-24T02:23:36;8.80;99.90
43043;DHT22;28667;50.758;6.096;2023-04-24T02:26:02;8.70;99.90
43043;DHT22;28667;50.758;6.096;2023-04-24T02:28:28;8.70;99.90
43043;DHT22;28667;50.758;6.096;2023-04-24T02:30:53;8.70;99.90
43043;DHT22;28667;50.758;6.096;2023-04-24T02:33:21;8.70;99.90
43043;DHT22;28667;50.758;6.096;2023-04-24T02:35:47;8.70;99.90
43043;DHT22;28667;50.758;6.096;2023-04-24T02:38:13;8.80;99.90
43043;DHT22;28667;50.758;6.096;2023-04-24T02:40:38;8.70;99.90
43043;DHT22;28667;50.758;6.096;2023-04-24T02:43:04;8.70;99.90
43043;DHT22;28667;50.758;6.096;2023-04-24T02:45:30;8.70;99.90
43043;DHT22;28667;50.758;6.096;2023-04-24T02:47:56;8.60;99.90
43043;DHT22;28667;50.758;6.096;2023-04-24T02:50:22;8.70;99.90
43043;DHT22;28667;50.758;6.096;2023-04-24T02:52:47;8.60;99.90
43043;DHT22;28667;50.758;6.096;2023-04-24T02:55:13;8.60;99.90
43043;DHT22;28667;50.758;6.096;2023-04-24T02:57:39;8.60;99.90
43043;DHT22;28667;50.758;6.096;2023-04-24T03:00:05;8.60;99.90
43043;DHT22;28667;50.758;6.096;2023-04-24T03:02:32;8.60;99.90
43043;DHT22;28667;50.758;6.096;2023-04-24T03:04:58;8.60;99.90
43043;DHT22;28667;50.758;6.096;2023-04-24T03:07:25;8.60;99.90
43043;DHT22;28667;50.758;6.096;2023-04-24T03:09:51;8.50;99.90
43043;DHT22;28667;50.758;6.096;2023-04-24T03:12:16;8.50;99.90
43043;DHT22;28667;50.758;6.096;2023-04-24T03:14:43;8.50;99.90
43043;DHT22;28667;50.758;6.096;2023-04-24T03:17:09;8.50;99.90
43043;DHT22;28667;50.758;6.096;2023-04-24T03:19:35;8.50;99.90
43043;DHT22;28667;50.758;6.096;2023-04-24T03:22:07;8.60;99.90
43043;DHT22;28667;50.758;6.096;2023-04-24T03:24:35;8.60;99.90
43043;DHT22;28667;50.758;6.096;2023-04-24T03:27:01;8.50;99.90
43043;DHT22;28667;50.758;6.096;2023-04-24T03:29:46;8.50;99.90
43043;DHT22;28667;50.758;6.096;2023-04-24T03:32:13;8.50;99.90
43043;DHT22;28667;50.758;6.096;2023-04-24T03:34:39;8.50;99.90
43043;DHT22;28667;50.758;6.096;2023-04-24T03:37:06;8.40;99.90
43043;DHT22;28667;50.758;6.096;2023-04-24T03:39:33;8.40;99.90
43043;DHT22;28667;50.758;6.096;2023-04-24T03:41:59;8.40;99.90
43043;DHT22;28667;50.758;6.096;2023-04-24T03:44:36;8.40;99.90
43043;DHT22;28667;50.758;6.096;2023-04-24T03:47:02;8.30;99.90
43043;DHT22;28667;50.758;6.096;2023-04-24T03:49:28;8.30;99.90
43043;DHT22;28667;50.758;6.096;2023-04-24T03:51:54;8.30;99.90
43043;DHT22;28667;50.758;6.096;2023-04-24T03:54:22;8.30;99.90
43043;DHT22;28667;50.758;6.096;2023-04-24T03:56:50;8.30;99.90
43043;DHT22;28667;50.758;6.096;2023-04-24T03:59:16;8.20;99.90
43043;DHT22;28667;50.758;6.096;2023-04-24T04:01:46;8.20;99.90
43043;DHT22;28667;50.758;6.096;2023-04-24T04:04:14;8.20;99.90
43043;DHT22;28667;50.758;6.096;2023-04-24T04:06:41;8.20;99.90
43043;DHT22;28667;50.758;6.096;2023-04-24T04:09:08;8.10;99.90
43043;DHT22;28667;50.758;6.096;2023-04-24T04:11:35;8.10;99.90
43043;DHT22;28667;50.758;6.096;2023-04-24T04:14:01;8.10;99.90
43043;DHT22;28667;50.758;6.096;2023-04-24T04:16:27;8.10;99.90
43043;DHT22;28667;50.758;6.096;2023-04-24T04:18:59;8.10;99.90
43043;DHT22;28667;50.758;6.096;2023-04-24T04:21:25;8.00;99.90
43043;DHT22;28667;50.758;6.096;2023-04-24T04:23:58;8.00;99.90
43043;DHT22;28667;50.758;6.096;2023-04-24T04:26:33;8.00;99.90
43043;DHT22;28667;50.758;6.096;2023-04-24T04:29:04;8.00;99.90
43043;DHT22;28667;50.758;6.096;2023-04-24T04:31:31;8.10;99.90
43043;DHT22;28667;50.758;6.096;2023-04-24T04:34:01;8.00;99.90
43043;DHT22;28667;50.758;6.096;2023-04-24T04:36:28;8.00;99.90
43043;DHT22;28667;50.758;6.096;2023-04-24T04:39:01;8.00;99.90
43043;DHT22;28667;50.758;6.096;2023-04-24T04:41:48;8.10;99.90
43043;DHT22;28667;50.758;6.096;2023-04-24T04:44:15;8.10;99.90
43043;DHT22;28667;50.758;6.096;2023-04-24T04:46:41;8.00;99.90
43043;DHT22;28667;50.758;6.096;2023-04-24T04:49:15;8.10;99.90
43043;DHT22;28667;50.758;6.096;2023-04-24T04:51:42;8.00;99.90
43043;DHT22;28667;50.758;6.096;2023-04-24T04:54:08;8.10;99.90
43043;DHT22;28667;50.758;6.096;2023-04-24T04:56:34;8.20;99.90
43043;DHT22;28667;50.758;6.096;2023-04-24T04:59:01;8.20;99.90
43043;DHT22;28667;50.758;6.096;2023-04-24T05:01:27;8.20;99.90
43043;DHT22;28667;50.758;6.096;2023-04-24T05:03:54;8.20;99.90
43043;DHT22;28667;50.758;6.096;2023-04-24T05:06:20;8.20;99.90
43043;DHT22;28667;50.758;6.096;2023-04-24T05:08:46;8.30;99.90
43043;DHT22;28667;50.758;6.096;2023-04-24T05:11:25;8.30;99.90
43043;DHT22;28667;50.758;6.096;2023-04-24T05:13:51;8.30;99.90
43043;DHT22;28667;50.758;6.096;2023-04-24T05:16:22;8.30;99.90
43043;DHT22;28667;50.758;6.096;2023-04-24T05:18:51;8.40;99.90
43043;DHT22;28667;50.758;6.096;2023-04-24T05:21:22;8.40;99.90
43043;DHT22;28667;50.758;6.096;2023-04-24T05:23:50;8.50;99.90
43043;DHT22;28667;50.758;6.096;2023-04-24T05:26:24;8.50;99.90
43043;DHT22;28667;50.758;6.096;2023-04-24T05:28:49;8.50;99.90
43043;DHT22;28667;50.758;6.096;2023-04-24T05:31:16;8.60;99.90
43043;DHT22;28667;50.758;6.096;2023-04-24T05:33:43;8.60;99.90
43043;DHT22;28667;50.758;6.096;2023-04-24T05:36:10;8.50;99.90
43043;DHT22;28667;50.758;6.096;2023-04-24T05:38:35;8.50;99.90
43043;DHT22;28667;50.758;6.096;2023-04-24T05:41:01;8.30;99.90
43043;DHT22;28667;50.758;6.096;2023-04-24T05:43:27;8.20;99.90
43043;DHT22;28667;50.758;6.096;2023-04-24T05:45:53;8.20;99.90
43043;DHT22;28667;50.758;6.096;2023-04-24T05:48:19;8.10;99.90
43043;DHT22;28667;50.758;6.096;2023-04-24T05:50:45;8.00;99.90
43043;DHT22;28667;50.758;6.096;2023-04-24T05:53:12;8.00;99.90
43043;DHT22;28667;50.758;6.096;2023-04-24T05:55:38;7.90;99.90
43043;DHT22;28667;50.758;6.096;2023-04-24T05:58:05;7.90;99.90
43043;DHT22;28667;50.758;6.096;2023-04-24T06:00:33;7.90;99.90
43043;DHT22;28667;50.758;6.096;2023-04-24T06:03:04;7.90;99.90
43043;DHT22;28667;50.758;6.096;2023-04-24T06:05:30;7.90;99.90
43043;DHT22;28667;50.758;6.096;2023-04-24T06:07:56;7.90;99.90
43043;DHT22;28667;50.758;6.096;2023-04-24T06:10:25;7.90;99.90
43043;DHT22;28667;50.758;6.096;2023-04-24T06:12:51;7.90;99.90
43043;DHT22;28667;50.758;6.096;2023-04-24T06:15:19;7.80;99.90
43043;DHT22;28667;50.758;6.096;2023-04-24T06:18:11;7.90;99.90
43043;DHT22;28667;50.758;6.096;2023-04-24T06:20:39;7.80;99.90
43043;DHT22;28667;50.758;6.096;2023-04-24T06:23:08;7.80;99.90
43043;DHT22;28667;50.758;6.096;2023-04-24T06:25:34;7.80;99.90
43043;DHT22;28667;50.758;6.096;2023-04-24T06:28:00;7.90;99.90
43043;DHT22;28667;50.758;6.096;2023-04-24T06:30:26;7.80;99.90
43043;DHT22;28667;50.758;6.096;2023-04-24T06:32:53;7.80;99.90
43043;DHT22;28667;50.758;6.096;2023-04-24T06:35:19;7.80;99.90
43043;DHT22;28667;50.758;6.096;2023-04-24T06:37:45;7.90;99.90
43043;DHT22;28667;50.758;6.096;2023-04-24T06:40:11;7.90;99.90
43043;DHT22;28667;50.758;6.096;2023-04-24T06:42:37;7.80;99.90
43043;DHT22;28667;50.758;6.096;2023-04-24T06:45:03;7.80;99.90
43043;DHT22;28667;50.758;6.096;2023-04-24T06:47:29;7.80;99.90
43043;DHT22;28667;50.758;6.096;2023-04-24T06:49:55;7.90;99.90
43043;DHT22;28667;50.758;6.096;2023-04-24T06:52:21;7.90;99.90
43043;DHT22;28667;50.758;6.096;2023-04-24T06:54:47;7.80;99.90
43043;DHT22;28667;50.758;6.096;2023-04-24T06:57:13;7.70;99.90
43043;DHT22;28667;50.758;6.096;2023-04-24T06:59:38;7.70;99.90
43043;DHT22;28667;50.758;6.096;2023-04-24T07:02:04;7.70;99.90
43043;DHT22;28667;50.758;6.096;2023-04-24T07:04:30;7.70;99.90
43043;DHT22;28667;50.758;6.096;2023-04-24T07:06:56;7.60;99.90
43043;DHT22;28667;50.758;6.096;2023-04-24T07:09:24;7.60;99.90
43043;DHT22;28667;50.758;6.096;2023-04-24T07:11:51;7.60;99.90
43043;DHT22;28667;50.758;6.096;2023-04-24T07:14:17;7.60;99.90
43043;DHT22;28667;50.758;6.096;2023-04-24T07:16:43;7.60;99.90
43043;DHT22;28667;50.758;6.096;2023-04-24T07:19:09;7.60;99.90
43043;DHT22;28667;50.758;6.096;2023-04-24T07:21:35;7.60;99.90
43043;DHT22;28667;50.758;6.096;2023-04-24T07:24:01;7.60;99.90
43043;DHT22;28667;50.758;6.096;2023-04-24T07:26:29;7.60;99.90
43043;DHT22;28667;50.758;6.096;2023-04-24T07:28:55;7.60;99.90
43043;DHT22;28667;50.758;6.096;2023-04-24T07:31:21;7.60;99.90
43043;DHT22;28667;50.758;6.096;2023-04-24T07:33:48;7.60;99.90
43043;DHT22;28667;50.758;6.096;2023-04-24T07:36:13;7.50;99.90
43043;DHT22;28667;50.758;6.096;2023-04-24T07:38:44;7.50;99.90
43043;DHT22;28667;50.758;6.096;2023-04-24T07:41:10;7.50;99.90
43043;DHT22;28667;50.758;6.096;2023-04-24T07:43:36;7.50;99.90
43043;DHT22;28667;50.758;6.096;2023-04-24T07:46:02;7.50;99.90
43043;DHT22;28667;50.758;6.096;2023-04-24T07:48:28;7.50;99.90
43043;DHT22;28667;50.758;6.096;2023-04-24T07:50:54;7.50;99.90
43043;DHT22;28667;50.758;6.096;2023-04-24T07:53:20;7.50;99.90
43043;DHT22;28667;50.758;6.096;2023-04-24T07:55:46;7.50;99.90
43043;DHT22;28667;50.758;6.096;2023-04-24T07:58:11;7.40;99.90
43043;DHT22;28667;50.758;6.096;2023-04-24T08:00:37;7.40;99.90
43043;DHT22;28667;50.758;6.096;2023-04-24T08:03:03;7.50;99.90
43043;DHT22;28667;50.758;6.096;2023-04-24T08:16:56;7.40;99.90
43043;DHT22;28667;50.758;6.096;2023-04-24T08:19:34;7.50;99.90
43043;DHT22;28667;50.758;6.096;2023-04-24T08:22:05;7.50;99.90
43043;DHT22;28667;50.758;6.096;2023-04-24T08:24:44;7.50;99.90
43043;DHT22;28667;50.758;6.096;2023-04-24T08:27:10;7.60;99.90
43043;DHT22;28667;50.758;6.096;2023-04-24T08:29:36;7.70;99.90
43043;DHT22;28667;50.758;6.096;2023-04-24T08:32:02;7.70;99.90
43043;DHT22;28667;50.758;6.096;2023-04-24T08:34:28;7.80;99.90
43043;DHT22;28667;50.758;6.096;2023-04-24T08:36:53;7.80;99.90
43043;DHT22;28667;50.758;6.096;2023-04-24T08:39:20;7.90;99.90
43043;DHT22;28667;50.758;6.096;2023-04-24T08:41:48;8.00;99.90
43043;DHT22;28667;50.758;6.096;2023-04-24T08:44:13;8.00;99.90
43043;DHT22;28667;50.758;6.096;2023-04-24T08:46:43;7.90;99.90
43043;DHT22;28667;50.758;6.096;2023-04-24T08:49:09;7.90;99.90
43043;DHT22;28667;50.758;6.096;2023-04-24T08:51:37;7.90;99.90
43043;DHT22;28667;50.758;6.096;2023-04-24T08:54:03;7.90;99.90
43043;DHT22;28667;50.758;6.096;2023-04-24T08:56:30;7.80;99.90
43043;DHT22;28667;50.758;6.096;2023-04-24T08:58:59;7.80;99.90
43043;DHT22;28667;50.758;6.096;2023-04-24T09:01:25;7.90;99.90
43043;DHT22;28667;50.758;6.096;2023-04-24T09:03:53;7.90;99.90
43043;DHT22;28667;50.758;6.096;2023-04-24T09:06:21;7.90;99.90
43043;DHT22;28667;50.758;6.096;2023-04-24T09:08:49;7.90;99.90
43043;DHT22;28667;50.758;6.096;2023-04-24T09:11:16;7.90;99.90
43043;DHT22;28667;50.758;6.096;2023-04-24T09:13:43;7.90;99.90
43043;DHT22;28667;50.758;6.096;2023-04-24T09:16:09;7.80;99.90
43043;DHT22;28667;50.758;6.096;2023-04-24T09:18:34;7.90;99.90
43043;DHT22;28667;50.758;6.096;2023-04-24T09:21:07;7.90;99.90
43043;DHT22;28667;50.758;6.096;2023-04-24T09:23:33;8.00;99.90
43043;DHT22;28667;50.758;6.096;2023-04-24T09:26:01;8.00;99.90
43043;DHT22;28667;50.758;6.096;2023-04-24T09:28:32;8.10;99.90
43043;DHT22;28667;50.758;6.096;2023-04-24T09:31:13;8.20;99.90
43043;DHT22;28667;50.758;6.096;2023-04-24T09:34:14;8.30;99.90
43043;DHT22;28667;50.758;6.096;2023-04-24T09:36:41;8.40;99.90
43043;DHT22;28667;50.758;6.096;2023-04-24T09:39:14;8.60;99.90
43043;DHT22;28667;50.758;6.096;2023-04-24T09:44:17;8.80;99.90
43043;DHT22;28667;50.758;6.096;2023-04-24T09:46:45;8.80;99.90
43043;DHT22;28667;50.758;6.096;2023-04-24T09:49:16;8.80;99.90
43043;DHT22;28667;50.758;6.096;2023-04-24T09:51:42;9.00;99.90
43043;DHT22;28667;50.758;6.096;2023-04-24T09:56:45;9.00;99.90
43043;DHT22;28667;50.758;6.096;2023-04-24T09:59:13;8.90;99.90
43043;DHT22;28667;50.758;6.096;2023-04-24T10:01:39;9.10;99.90
43043;DHT22;28667;50.758;6.096;2023-04-24T10:04:18;9.20;99.90
43043;DHT22;28667;50.758;6.096;2023-04-24T10:06:45;9.40;99.90
43043;DHT22;28667;50.758;6.096;2023-04-24T10:09:12;9.50;99.90
43043;DHT22;28667;50.758;6.096;2023-04-24T10:11:44;9.50;99.90
43043;DHT22;28667;50.758;6.096;2023-04-24T10:14:21;9.70;99.90
43043;DHT22;28667;50.758;6.096;2023-04-24T10:16:48;9.80;99.90
43043;DHT22;28667;50.758;6.096;2023-04-24T10:19:16;9.90;99.90
43043;DHT22;28667;50.758;6.096;2023-04-24T10:21:43;9.90;99.90
43043;DHT22;28667;50.758;6.096;2023-04-24T10:24:16;10.00;99.90
43043;DHT22;28667;50.758;6.096;2023-04-24T10:26:43;10.00;99.90
43043;DHT22;28667;50.758;6.096;2023-04-24T10:29:11;10.10;99.90
43043;DHT22;28667;50.758;6.096;2023-04-24T10:31:38;10.20;99.90
43043;DHT22;28667;50.758;6.096;2023-04-24T10:34:09;10.30;99.90
43043;DHT22;28667;50.758;6.096;2023-04-24T10:36:36;10.30;99.90
43043;DHT22;28667;50.758;6.096;2023-04-24T10:39:06;10.30;99.90
43043;DHT22;28667;50.758;6.096;2023-04-24T10:41:33;10.40;99.90
43043;DHT22;28667;50.758;6.096;2023-04-24T10:44:11;10.40;99.90
43043;DHT22;28667;50.758;6.096;2023-04-24T10:46:39;10.50;99.90
43043;DHT22;28667;50.758;6.096;2023-04-24T10:49:06;10.50;99.90
43043;DHT22;28667;50.758;6.096;2023-04-24T10:51:52;10.50;99.90
43043;DHT22;28667;50.758;6.096;2023-04-24T10:56:51;10.60;99.90
43043;DHT22;28667;50.758;6.096;2023-04-24T10:59:27;10.50;99.90
43043;DHT22;28667;50.758;6.096;2023-04-24T11:02:00;10.50;99.90
43043;DHT22;28667;50.758;6.096;2023-04-24T11:04:32;10.40;99.90
43043;DHT22;28667;50.758;6.096;2023-04-24T11:06:59;10.40;99.90
43043;DHT22;28667;50.758;6.096;2023-04-24T11:09:30;10.20;99.90
43043;DHT22;28667;50.758;6.096;2023-04-24T11:12:05;10.20;99.90
43043;DHT22;28667;50.758;6.096;2023-04-24T11:20:10;10.10;99.90
43043;DHT22;28667;50.758;6.096;2023-04-24T11:22:38;10.20;99.90
43043;DHT22;28667;50.758;6.096;2023-04-24T11:25:05;10.30;99.90
43043;DHT22;28667;50.758;6.096;2023-04-24T11:27:41;10.50;99.90
43043;DHT22;28667;50.758;6.096;2023-04-24T11:30:09;10.70;99.90
43043;DHT22;28667;50.758;6.096;2023-04-24T11:32:36;10.70;99.90
43043;DHT22;28667;50.758;6.096;2023-04-24T11:35:13;10.80;99.90
43043;DHT22;28667;50.758;6.096;2023-04-24T11:37:41;10.90;99.90
43043;DHT22;28667;50.758;6.096;2023-04-24T11:40:09;11.00;99.90
43043;DHT22;28667;50.758;6.096;2023-04-24T11:42:40;11.10;99.90
43043;DHT22;28667;50.758;6.096;2023-04-24T11:45:21;11.00;99.90
43043;DHT22;28667;50.758;6.096;2023-04-24T11:47:47;11.10;99.90
43043;DHT22;28667;50.758;6.096;2023-04-24T11:50:14;11.20;99.90
43043;DHT22;28667;50.758;6.096;2023-04-24T11:52:42;11.30;99.90
43043;DHT22;28667;50.758;6.096;2023-04-24T11:57:45;11.20;99.90
43043;DHT22;28667;50.758;6.096;2023-04-24T12:00:22;11.10;99.90
43043;DHT22;28667;50.758;6.096;2023-04-24T12:02:49;11.00;99.90
43043;DHT22;28667;50.758;6.096;2023-04-24T12:05:24;11.00;99.90
43043;DHT22;28667;50.758;6.096;2023-04-24T12:07:51;11.00;99.90
43043;DHT22;28667;50.758;6.096;2023-04-24T12:10:25;11.00;99.90
43043;DHT22;28667;50.758;6.096;2023-04-24T12:12:55;11.10;99.90
43043;DHT22;28667;50.758;6.096;2023-04-24T12:15:21;11.10;99.90
43043;DHT22;28667;50.758;6.096;2023-04-24T12:17:49;11.10;99.90
43043;DHT22;28667;50.758;6.096;2023-04-24T12:20:16;11.00;99.90
43043;DHT22;28667;50.758;6.096;2023-04-24T12:22:45;10.80;99.90
43043;DHT22;28667;50.758;6.096;2023-04-24T12:25:12;10.80;99.90
43043;DHT22;28667;50.758;6.096;2023-04-24T12:27:38;10.80;99.90
43043;DHT22;28667;50.758;6.096;2023-04-24T12:30:05;10.80;99.90
43043;DHT22;28667;50.758;6.096;2023-04-24T12:32:31;10.80;99.90
43043;DHT22;28667;50.758;6.096;2023-04-24T12:34:57;11.00;99.90
43043;DHT22;28667;50.758;6.096;2023-04-24T12:37:25;11.20;99.90
43043;DHT22;28667;50.758;6.096;2023-04-24T12:40:10;11.40;99.90
43043;DHT22;28667;50.758;6.096;2023-04-24T12:42:49;11.50;99.90
43043;DHT22;28667;50.758;6.096;2023-04-24T12:45:16;11.60;99.90
43043;DHT22;28667;50.758;6.096;2023-04-24T12:47:43;11.60;99.90
43043;DHT22;28667;50.758;6.096;2023-04-24T12:50:11;11.60;99.90
43043;DHT22;28667;50.758;6.096;2023-04-24T12:52:37;11.60;99.90
43043;DHT22;28667;50.758;6.096;2023-04-24T12:55:03;11.50;99.90
43043;DHT22;28667;50.758;6.096;2023-04-24T12:57:30;11.50;99.90
43043;DHT22;28667;50.758;6.096;2023-04-24T12:59:57;11.50;99.90
43043;DHT22;28667;50.758;6.096;2023-04-24T13:02:25;11.60;99.90
43043;DHT22;28667;50.758;6.096;2023-04-24T13:04:51;11.60;99.90
43043;DHT22;28667;50.758;6.096;2023-04-24T13:07:18;11.50;99.90
43043;DHT22;28667;50.758;6.096;2023-04-24T13:09:44;11.40;99.90
43043;DHT22;28667;50.758;6.096;2023-04-24T13:12:11;11.50;99.90
43043;DHT22;28667;50.758;6.096;2023-04-24T13:14:37;11.50;99.90
43043;DHT22;28667;50.758;6.096;2023-04-24T13:17:03;11.60;99.90
43043;DHT22;28667;50.758;6.096;2023-04-24T13:19:34;11.70;99.90
43043;DHT22;28667;50.758;6.096;2023-04-24T13:22:01;11.70;99.90
43043;DHT22;28667;50.758;6.096;2023-04-24T13:24:26;11.80;99.90
43043;DHT22;28667;50.758;6.096;2023-04-24T13:26:53;11.90;99.90
43043;DHT22;28667;50.758;6.096;2023-04-24T13:29:19;12.10;99.90
43043;DHT22;28667;50.758;6.096;2023-04-24T13:31:46;12.20;99.90
43043;DHT22;28667;50.758;6.096;2023-04-24T13:34:13;12.30;99.90
43043;DHT22;28667;50.758;6.096;2023-04-24T13:36:39;12.40;99.90
43043;DHT22;28667;50.758;6.096;2023-04-24T13:39:05;12.50;99.90
43043;DHT22;28667;50.758;6.096;2023-04-24T13:41:34;12.40;99.90
43043;DHT22;28667;50.758;6.096;2023-04-24T13:44:02;12.40;99.90
43043;DHT22;28667;50.758;6.096;2023-04-24T13:46:28;12.40;99.90
43043;DHT22;28667;50.758;6.096;2023-04-24T13:48:54;12.40;99.90
43043;DHT22;28667;50.758;6.096;2023-04-24T13:51:20;12.40;99.90
43043;DHT22;28667;50.758;6.096;2023-04-24T13:53:46;12.50;99.90
43043;DHT22;28667;50.758;6.096;2023-04-24T13:56:11;12.60;99.90
43043;DHT22;28667;50.758;6.096;2023-04-24T13:58:39;12.60;99.90
43043;DHT22;28667;50.758;6.096;2023-04-24T14:01:05;12.70;99.90
43043;DHT22;28667;50.758;6.096;2023-04-24T14:03:30;12.70;99.90
43043;DHT22;28667;50.758;6.096;2023-04-24T14:05:56;12.70;99.90
43043;DHT22;28667;50.758;6.096;2023-04-24T14:08:23;12.60;99.90
43043;DHT22;28667;50.758;6.096;2023-04-24T14:10:49;12.60;99.90
43043;DHT22;28667;50.758;6.096;2023-04-24T14:13:16;12.60;99.90
43043;DHT22;28667;50.758;6.096;2023-04-24T14:15:42;12.60;99.90
43043;DHT22;28667;50.758;6.096;2023-04-24T14:18:08;12.60;99.90
43043;DHT22;28667;50.758;6.096;2023-04-24T14:20:33;12.50;99.90
43043;DHT22;28667;50.758;6.096;2023-04-24T14:22:59;12.50;99.90
43043;DHT22;28667;50.758;6.096;2023-04-24T14:25:25;12.50;99.90
43043;DHT22;28667;50.758;6.096;2023-04-24T14:27:51;12.70;99.90
43043;DHT22;28667;50.758;6.096;2023-04-24T14:30:18;12.80;99.90
43043;DHT22;28667;50.758;6.096;2023-04-24T14:32:44;12.80;99.90
43043;DHT22;28667;50.758;6.096;2023-04-24T14:35:10;12.90;99.90
43043;DHT22;28667;50.758;6.096;2023-04-24T14:37:36;12.80;99.90
43043;DHT22;28667;50.758;6.096;2023-04-24T14:40:02;12.80;99.90
43043;DHT22;28667;50.758;6.096;2023-04-24T14:42:29;12.90;99.90
43043;DHT22;28667;50.758;6.096;2023-04-24T14:44:55;12.90;99.90
43043;DHT22;28667;50.758;6.096;2023-04-24T14:47:21;13.00;99.90
43043;DHT22;28667;50.758;6.096;2023-04-24T14:49:48;13.00;99.90
43043;DHT22;28667;50.758;6.096;2023-04-24T14:52:14;13.00;99.90
43043;DHT22;28667;50.758;6.096;2023-04-24T14:54:40;13.00;99.90
43043;DHT22;28667;50.758;6.096;2023-04-24T14:57:05;13.00;99.90
43043;DHT22;28667;50.758;6.096;2023-04-24T14:59:31;13.00;99.90
43043;DHT22;28667;50.758;6.096;2023-04-24T15:01:57;13.00;99.90
43043;DHT22;28667;50.758;6.096;2023-04-24T15:04:27;12.90;99.90
43043;DHT22;28667;50.758;6.096;2023-04-24T15:06:54;13.00;99.90
43043;DHT22;28667;50.758;6.096;2023-04-24T15:09:21;13.00;99.70
43043;DHT22;28667;50.758;6.096;2023-04-24T15:11:48;12.80;99.30
43043;DHT22;28667;50.758;6.096;2023-04-24T15:14:15;12.70;99.90
43043;DHT22;28667;50.758;6.096;2023-04-24T15:16:41;12.60;99.90
43043;DHT22;28667;50.758;6.096;2023-04-24T15:19:07;12.40;99.90
43043;DHT22;28667;50.758;6.096;2023-04-24T15:21:33;12.40;99.90
43043;DHT22;28667;50.758;6.096;2023-04-24T15:23:59;12.30;99.90
43043;DHT22;28667;50.758;6.096;2023-04-24T15:26:25;12.30;99.90
43043;DHT22;28667;50.758;6.096;2023-04-24T15:28:51;12.10;99.90
43043;DHT22;28667;50.758;6.096;2023-04-24T15:31:18;12.10;99.90
43043;DHT22;28667;50.758;6.096;2023-04-24T15:33:44;12.10;99.90
43043;DHT22;28667;50.758;6.096;2023-04-24T15:36:10;12.00;99.90
43043;DHT22;28667;50.758;6.096;2023-04-24T15:38:37;12.00;99.90
43043;DHT22;28667;50.758;6.096;2023-04-24T15:41:03;11.90;99.90
43043;DHT22;28667;50.758;6.096;2023-04-24T15:43:29;11.80;99.90
43043;DHT22;28667;50.758;6.096;2023-04-24T15:45:57;11.80;99.90
43043;DHT22;28667;50.758;6.096;2023-04-24T15:48:23;11.80;99.90
43043;DHT22;28667;50.758;6.096;2023-04-24T15:50:49;11.80;99.90
43043;DHT22;28667;50.758;6.096;2023-04-24T15:53:14;11.80;99.90
43043;DHT22;28667;50.758;6.096;2023-04-24T15:55:50;11.80;99.90
43043;DHT22;28667;50.758;6.096;2023-04-24T15:58:17;11.90;99.90
43043;DHT22;28667;50.758;6.096;2023-04-24T16:00:42;11.90;99.90
43043;DHT22;28667;50.758;6.096;2023-04-24T16:03:08;12.00;99.90
43043;DHT22;28667;50.758;6.096;2023-04-24T16:05:34;12.00;99.90
43043;DHT22;28667;50.758;6.096;2023-04-24T16:08:00;12.00;99.90
43043;DHT22;28667;50.758;6.096;2023-04-24T16:10:29;12.00;99.90